Time,TemperatureF,DewpointF,PressureIn,WindDirection,WindDirectionDegrees,WindSpeedMPH,WindSpeedGustMPH,Humidity,HourlyPrecipIn,Conditions,Clouds,dailyrainin,SoftwareType,DateUTC
2013-01-10 00:09:00,33.5,3.0,29.92,South,182,25.0,-999.0,28,-99.99,,,0.00,weatherlink.com 1.10,2013-01-10 07:09:00,
2013-01-10 00:24:00,33.5,3.0,29.93,South,177,24.0,-999.0,28,-99.99,,,0.00,weatherlink.com 1.10,2013-01-10 07:24:00,
2013-01-10 00:39:00,32.2,4.0,29.92,South,178,19.0,-999.0,30,-99.99,,,0.00,weatherlink.com 1.10,2013-01-10 07:39:00,
2013-01-10 00:54:00,33.4,3.0,29.90,SSW,196,23.0,-999.0,27,-99.99,,,0.00,weatherlink.com 1.10,2013-01-10 07:54:00,
2013-01-10 01:10:00,33.5,3.0,29.89,South,178,28.0,-999.0,27,-99.99,,,0.00,weatherlink.com 1.10,2013-01-10 08:10:00,
2013-01-10 01:25:00,33.0,3.0,29.89,South,178,25.0,-999.0,28,-99.99,,,0.00,weatherlink.com 1.10,2013-01-10 08:25:00,
2013-01-10 01:40:00,33.2,2.0,29.89,South,175,25.0,-999.0,27,-99.99,,,0.00,weatherlink.com 1.10,2013-01-10 08:40:00,
2013-01-10 01:55:00,33.3,3.0,29.87,South,175,35.0,-999.0,27,-99.99,,,0.00,weatherlink.com 1.10,2013-01-10 08:55:00,
2013-01-10 02:10:00,33.3,3.0,29.87,South,188,26.0,-999.0,27,-99.99,,,0.00,weatherlink.com 1.10,2013-01-10 09:10:00,
2013-01-10 02:25:00,33.6,2.0,29.87,South,174,28.0,-999.0,26,-99.99,,,0.00,weatherlink.com 1.10,2013-01-10 09:25:00,
2013-01-10 02:40:00,33.3,2.0,29.86,SSE,165,26.0,-999.0,26,-99.99,,,0.00,weatherlink.com 1.10,2013-01-10 09:40:00,
2013-01-10 02:55:00,32.8,1.0,29.85,South,182,22.0,-999.0,26,-99.99,,,0.00,weatherlink.com 1.10,2013-01-10 09:55:00,
2013-01-10 03:10:00,33.0,1.0,29.84,South,180,24.0,-999.0,26,-99.99,,,0.00,weatherlink.com 1.10,2013-01-10 10:10:00,
2013-01-10 03:25:00,32.8,1.0,29.82,South,184,24.0,-999.0,26,-99.99,,,0.00,weatherlink.com 1.10,2013-01-10 10:25:00,
2013-01-10 03:40:00,32.6,1.0,29.80,SSE,166,26.0,-999.0,26,-99.99,,,0.00,weatherlink.com 1.10,2013-01-10 10:40:00,
2013-01-10 03:56:00,32.6,1.0,29.79,South,177,28.0,-999.0,26,-99.99,,,0.00,weatherlink.com 1.10,2013-01-10 10:56:00,
2013-01-10 04:11:00,32.6,1.0,29.78,South,175,31.0,-999.0,26,-99.99,,,0.00,weatherlink.com 1.10,2013-01-10 11:11:00,
2013-01-10 04:26:00,32.4,1.0,29.77,South,174,30.0,-999.0,26,-99.99,,,0.00,weatherlink.com 1.10,2013-01-10 11:26:00,
2013-01-10 04:41:00,32.4,1.0,29.76,South,175,25.0,-999.0,26,-99.99,,,0.00,weatherlink.com 1.10,2013-01-10 11:41:00,
2013-01-10 04:56:00,32.2,1.0,29.75,South,172,25.0,-999.0,26,-99.99,,,0.00,weatherlink.com 1.10,2013-01-10 11:56:00,
2013-01-10 05:11:00,32.6,0.0,29.74,South,173,27.0,-999.0,25,-99.99,,,0.00,weatherlink.com 1.10,2013-01-10 12:11:00,
2013-01-10 05:26:00,32.1,1.0,29.73,SSE,167,35.0,-999.0,26,-99.99,,,0.00,weatherlink.com 1.10,2013-01-10 12:26:00,
2013-01-10 05:41:00,32.4,0.0,29.71,SSW,205,32.0,-999.0,25,-99.99,,,0.00,weatherlink.com 1.10,2013-01-10 12:41:00,
2013-01-10 05:56:00,31.9,0.0,29.70,South,180,33.0,-999.0,25,-99.99,,,0.00,weatherlink.com 1.10,2013-01-10 12:56:00,
2013-01-10 06:11:00,32.3,0.0,29.70,South,180,29.0,-999.0,25,-99.99,,,0.00,weatherlink.com 1.10,2013-01-10 13:11:00,
2013-01-10 06:27:00,31.8,0.0,29.68,SSE,163,26.0,-999.0,25,-99.99,,,0.00,weatherlink.com 1.10,2013-01-10 13:27:00,
2013-01-10 06:42:00,31.3,0.0,29.68,South,170,30.0,-999.0,26,-99.99,,,0.00,weatherlink.com 1.10,2013-01-10 13:42:00,
2013-01-10 06:57:00,31.2,0.0,29.67,South,179,31.0,-999.0,26,-99.99,,,0.00,weatherlink.com 1.10,2013-01-10 13:57:00,
2013-01-10 07:12:00,32.1,-1.0,29.68,South,187,30.0,-999.0,24,-99.99,,,0.00,weatherlink.com 1.10,2013-01-10 14:12:00,
2013-01-10 07:27:00,31.5,-1.0,29.67,South,169,29.0,-999.0,25,-99.99,,,0.00,weatherlink.com 1.10,2013-01-10 14:27:00,
2013-01-10 07:42:00,30.2,1.0,29.66,SSW,194,28.0,-999.0,28,-99.99,,,0.00,weatherlink.com 1.10,2013-01-10 14:42:00,
2013-01-10 07:57:00,29.4,1.0,29.66,South,171,26.0,-999.0,29,-99.99,,,0.00,weatherlink.com 1.10,2013-01-10 14:57:00,
2013-01-10 08:12:00,28.6,1.0,29.64,South,188,24.0,-999.0,31,-99.99,,,0.00,weatherlink.com 1.10,2013-01-10 15:12:00,
2013-01-10 08:27:00,28.2,2.0,29.64,SSW,202,24.0,-999.0,32,-99.99,,,0.00,weatherlink.com 1.10,2013-01-10 15:27:00,
2013-01-10 08:42:00,28.5,2.0,29.64,SSW,196,21.0,-999.0,32,-99.99,,,0.00,weatherlink.com 1.10,2013-01-10 15:42:00,
2013-01-10 08:58:00,28.4,3.0,29.65,SSW,197,21.0,-999.0,33,-99.99,,,0.00,weatherlink.com 1.10,2013-01-10 15:58:00,
2013-01-10 09:13:00,28.7,2.0,29.65,SSW,194,16.0,-999.0,32,-99.99,,,0.00,weatherlink.com 1.10,2013-01-10 16:13:00,
2013-01-10 09:28:00,28.3,2.0,29.65,SSW,196,17.0,-999.0,33,-99.99,,,0.00,weatherlink.com 1.10,2013-01-10 16:28:00,
2013-01-10 09:43:00,29.5,2.0,29.64,SSW,198,16.0,-999.0,30,-99.99,,,0.00,weatherlink.com 1.10,2013-01-10 16:43:00,
2013-01-10 09:58:00,29.7,1.0,29.65,SSW,213,10.0,-999.0,29,-99.99,,,0.00,weatherlink.com 1.10,2013-01-10 16:58:00,
2013-01-10 10:13:00,30.0,2.0,29.64,WSW,238,3.0,-999.0,30,-99.99,,,0.00,weatherlink.com 1.10,2013-01-10 17:13:00,
2013-01-10 10:28:00,30.0,3.0,29.63,SW,222,7.0,-999.0,31,-99.99,,,0.00,weatherlink.com 1.10,2013-01-10 17:28:00,
2013-01-10 10:43:00,30.6,2.0,29.62,SSW,194,10.0,-999.0,30,-99.99,,,0.00,weatherlink.com 1.10,2013-01-10 17:43:00,
2013-01-10 10:58:00,31.2,4.0,29.62,South,180,11.0,-999.0,31,-99.99,,,0.00,weatherlink.com 1.10,2013-01-10 17:58:00,
2013-01-10 11:13:00,31.6,2.0,29.60,SE,144,18.0,-999.0,28,-99.99,,,0.00,weatherlink.com 1.10,2013-01-10 18:13:00,
2013-01-10 11:28:00,32.2,2.0,29.58,SSW,201,9.0,-999.0,27,-99.99,,,0.00,weatherlink.com 1.10,2013-01-10 18:28:00,
2013-01-10 11:44:00,32.9,1.0,29.55,South,181,17.0,-999.0,26,-99.99,,,0.00,weatherlink.com 1.10,2013-01-10 18:44:00,
2013-01-10 11:59:00,33.2,0.0,29.52,South,184,24.0,-999.0,24,-99.99,,,0.00,weatherlink.com 1.10,2013-01-10 18:59:00,
2013-01-10 12:14:00,33.5,0.0,29.50,SSE,162,28.0,-999.0,24,-99.99,,,0.00,weatherlink.com 1.10,2013-01-10 19:14:00,
2013-01-10 12:29:00,34.1,0.0,29.48,SSE,166,30.0,-999.0,23,-99.99,,,0.00,weatherlink.com 1.10,2013-01-10 19:29:00,
2013-01-10 12:44:00,34.4,3.0,29.47,South,184,28.0,-999.0,26,-99.99,,,0.00,weatherlink.com 1.10,2013-01-10 19:44:00,
2013-01-10 12:59:00,34.5,1.0,29.47,SSE,166,32.0,-999.0,24,-99.99,,,0.00,weatherlink.com 1.10,2013-01-10 19:59:00,
2013-01-10 13:14:00,34.6,2.0,29.47,South,188,29.0,-999.0,25,-99.99,,,0.00,weatherlink.com 1.10,2013-01-10 20:14:00,
2013-01-10 13:29:00,34.0,3.0,29.47,South,190,27.0,-999.0,27,-99.99,,,0.00,weatherlink.com 1.10,2013-01-10 20:29:00,
2013-01-10 13:44:00,34.6,4.0,29.48,South,178,26.0,-999.0,27,-99.99,,,0.00,weatherlink.com 1.10,2013-01-10 20:44:00,
2013-01-10 13:59:00,33.3,6.0,29.47,SSE,166,22.0,-999.0,31,-99.99,,,0.00,weatherlink.com 1.10,2013-01-10 20:59:00,
2013-01-10 14:15:00,32.6,5.0,29.47,South,178,24.0,-999.0,31,-99.99,,,0.00,weatherlink.com 1.10,2013-01-10 21:15:00,
2013-01-10 14:30:00,32.4,6.0,29.46,South,170,24.0,-999.0,33,-99.99,,,0.00,weatherlink.com 1.10,2013-01-10 21:30:00,
2013-01-10 14:45:00,32.6,5.0,29.46,SSW,192,26.0,-999.0,31,-99.99,,,0.00,weatherlink.com 1.10,2013-01-10 21:45:00,
2013-01-10 15:00:00,33.1,5.0,29.46,South,175,25.0,-999.0,30,-99.99,,,0.00,weatherlink.com 1.10,2013-01-10 22:00:00,
2013-01-10 15:15:00,32.5,3.0,29.45,South,170,27.0,-999.0,29,-99.99,,,0.00,weatherlink.com 1.10,2013-01-10 22:15:00,
2013-01-10 15:30:00,32.1,3.0,29.44,South,177,33.0,-999.0,29,-99.99,,,0.00,weatherlink.com 1.10,2013-01-10 22:30:00,
2013-01-10 15:45:00,31.8,4.0,29.44,South,173,32.0,-999.0,31,-99.99,,,0.00,weatherlink.com 1.10,2013-01-10 22:45:00,
2013-01-10 16:00:00,31.4,5.0,29.44,SSE,167,30.0,-999.0,32,-99.99,,,0.00,weatherlink.com 1.10,2013-01-10 23:00:00,
2013-01-10 16:15:00,30.8,5.0,29.43,South,185,29.0,-999.0,34,-99.99,,,0.00,weatherlink.com 1.10,2013-01-10 23:15:00,
2013-01-10 16:30:00,30.3,7.0,29.42,South,170,27.0,-999.0,37,-99.99,,,0.00,weatherlink.com 1.10,2013-01-10 23:30:00,
2013-01-10 17:00:00,29.4,10.0,29.39,South,189,31.0,-999.0,44,-99.99,,,0.00,weatherlink.com 1.10,2013-01-11 00:00:00,
2013-01-10 17:16:00,28.9,12.0,29.39,South,190,30.0,-999.0,49,-99.99,,,0.00,weatherlink.com 1.10,2013-01-11 00:16:00,
2013-01-10 17:31:00,28.7,12.0,29.37,SSW,192,38.0,-999.0,50,-99.99,,,0.00,weatherlink.com 1.10,2013-01-11 00:31:00,
2013-01-10 17:46:00,28.5,12.0,29.36,South,171,40.0,-999.0,50,-99.99,,,0.00,weatherlink.com 1.10,2013-01-11 00:46:00,
2013-01-10 18:01:00,28.5,12.0,29.36,SSW,195,34.0,-999.0,50,-99.99,,,0.00,weatherlink.com 1.10,2013-01-11 01:01:00,
2013-01-10 18:16:00,28.5,12.0,29.36,South,186,39.0,-999.0,51,-99.99,,,0.00,weatherlink.com 1.10,2013-01-11 01:16:00,
2013-01-10 18:31:00,28.4,12.0,29.35,South,189,37.0,-999.0,51,-99.99,,,0.00,weatherlink.com 1.10,2013-01-11 01:31:00,
2013-01-10 18:46:00,28.0,12.0,29.34,South,191,31.0,-999.0,52,-99.99,,,0.00,weatherlink.com 1.10,2013-01-11 01:46:00,
2013-01-10 19:01:00,27.6,13.0,29.35,SSE,167,35.0,-999.0,54,-99.99,,,0.00,weatherlink.com 1.10,2013-01-11 02:01:00,
2013-01-10 19:31:00,27.4,13.0,29.35,South,186,35.0,-999.0,56,-99.99,,,0.00,weatherlink.com 1.10,2013-01-11 02:31:00,
2013-01-10 19:46:00,27.4,13.0,29.34,SSW,202,37.0,-999.0,56,-99.99,,,0.00,weatherlink.com 1.10,2013-01-11 02:46:00,
2013-01-10 20:02:00,27.0,14.0,29.35,South,187,31.0,-999.0,58,-99.99,,,0.00,weatherlink.com 1.10,2013-01-11 03:02:00,
2013-01-10 20:17:00,26.9,14.0,29.36,SSW,213,32.0,-999.0,59,-99.99,,,0.00,weatherlink.com 1.10,2013-01-11 03:17:00,
2013-01-10 20:32:00,26.4,14.0,29.36,South,178,25.0,-999.0,60,-99.99,,,0.00,weatherlink.com 1.10,2013-01-11 03:32:00,
2013-01-10 20:47:00,26.0,14.0,29.36,SSW,202,23.0,-999.0,62,-99.99,,,0.00,weatherlink.com 1.10,2013-01-11 03:47:00,
2013-01-10 21:02:00,25.8,15.0,29.36,South,188,22.0,-999.0,63,-99.99,,,0.00,weatherlink.com 1.10,2013-01-11 04:02:00,
2013-01-10 21:17:00,25.7,15.0,29.35,South,169,19.0,-999.0,64,-99.99,,,0.00,weatherlink.com 1.10,2013-01-11 04:17:00,
2013-01-10 21:32:00,25.8,15.0,29.32,SSW,193,27.0,-999.0,64,-99.99,,,0.00,weatherlink.com 1.10,2013-01-11 04:32:00,
2013-01-10 21:47:00,25.6,15.0,29.32,SSW,193,32.0,-999.0,65,-99.99,,,0.00,weatherlink.com 1.10,2013-01-11 04:47:00,
2013-01-10 22:02:00,25.6,16.0,29.31,South,188,27.0,-999.0,66,-99.99,,,0.00,weatherlink.com 1.10,2013-01-11 05:02:00,
2013-01-10 22:17:00,25.4,16.0,29.31,South,191,34.0,-999.0,67,-99.99,,,0.00,weatherlink.com 1.10,2013-01-11 05:17:00,
2013-01-10 22:32:00,25.2,16.0,29.32,SSW,207,30.0,-999.0,69,-99.99,,,0.00,weatherlink.com 1.10,2013-01-11 05:32:00,
2013-01-10 22:48:00,25.1,17.0,29.31,South,186,29.0,-999.0,70,-99.99,,,0.00,weatherlink.com 1.10,2013-01-11 05:48:00,
2013-01-10 23:03:00,24.8,17.0,29.31,South,189,25.0,-999.0,71,-99.99,,,0.00,weatherlink.com 1.10,2013-01-11 06:03:00,
2013-01-10 23:18:00,24.1,17.0,29.30,South,175,33.0,-999.0,73,-99.99,,,0.00,weatherlink.com 1.10,2013-01-11 06:18:00,
2013-01-10 23:33:00,23.2,17.0,29.31,South,190,32.0,-999.0,76,-99.99,,,0.00,weatherlink.com 1.10,2013-01-11 06:33:00,
2013-01-10 23:48:00,23.3,17.0,29.30,South,178,25.0,-999.0,75,-99.99,,,0.00,weatherlink.com 1.10,2013-01-11 06:48:00,